MDT,Max TemperatureF,Mean TemperatureF,Min TemperatureF,Max Dew PointF,MeanDew PointF,Min DewpointF,Max Humidity, Mean Humidity, Min Humidity, Max Sea Level PressureIn, Mean Sea Level PressureIn, Min Sea Level PressureIn, Max VisibilityMiles, Mean VisibilityMiles, Min VisibilityMiles, Max Wind SpeedMPH, Mean Wind SpeedMPH, Max Gust SpeedMPH,PrecipitationIn, CloudCover, Events, WindDirDegrees
2011-9-1,87,74,61,59,56,54,78,58,37,29.94,29.76,29.56,10,10,10,23,13,30,0.00,0,,342
2011-9-2,83,70,56,64,57,51,93,65,36,30.01,29.90,29.80,10,9,2,31,6,40,0.38,4,Rain,136
2011-9-3,74,60,46,63,44,38,86,58,29,30.26,30.13,29.92,10,10,10,29,13,37,T,4,Rain,331
2011-9-4,74,58,41,44,39,35,89,57,25,30.33,30.25,30.15,10,10,10,12,6,16,0.00,0,,208
2011-9-5,90,68,45,52,45,41,89,55,21,30.14,29.96,29.83,10,10,10,18,8,24,0.00,0,,131
2011-9-6,86,66,45,54,49,42,93,60,27,30.10,29.99,29.91,10,10,10,10,3,10,0.00,0,,263
2011-9-7,88,68,48,54,47,41,93,57,20,30.27,30.20,30.11,10,10,10,17,5,23,0.00,0,,21
2011-9-8,83,65,46,57,49,44,93,61,28,30.32,30.25,30.19,10,10,10,13,4,18,0.00,0,,91
2011-9-9,83,65,46,51,47,43,93,60,26,30.21,30.16,30.10,10,10,10,12,5,16,0.00,0,,109
2011-9-10,85,66,46,52,48,43,93,59,25,30.17,30.10,30.01,10,10,10,14,4,17,0.00,0,,187
2011-9-11,94,73,51,50,45,37,83,49,14,30.01,29.90,29.76,10,10,10,16,6,25,0.00,0,,214
2011-9-12,85,67,49,47,45,40,72,48,23,30.09,29.93,29.75,10,10,10,24,11,30,0.00,0,,338
2011-9-13,76,59,41,46,43,38,89,58,27,30.19,30.13,30.08,10,10,10,24,6,29,0.00,1,,52
2011-9-14,57,47,37,43,36,30,89,64,38,30.46,30.37,30.20,10,10,10,13,7,16,0.06,5,Rain,84
2011-9-15,44,40,37,41,38,28,89,77,64,30.37,30.23,30.06,10,10,7,16,9,24,0.27,7,Rain,136
2011-9-16,67,56,44,49,45,39,93,73,52,30.05,29.95,29.87,10,10,8,20,10,25,0.00,4,,132
2011-9-17,80,63,45,56,51,43,93,68,42,29.91,29.82,29.74,10,9,4,26,10,32,0.03,2,Rain,332
2011-9-18,80,63,45,52,43,34,93,56,19,30.08,30.01,29.92,10,10,10,20,9,28,0.00,0,,289
2011-9-19,86,63,39,46,41,36,89,54,19,30.08,29.92,29.70,10,10,10,44,7,56,T,0,,246
2011-9-20,65,55,45,45,38,36,71,54,36,30.15,29.98,29.84,10,10,10,41,23,58,0.00,3,,303
2011-9-21,67,52,36,43,38,34,85,60,34,30.24,30.19,30.14,10,10,10,14,9,23,0.00,1,,305
2011-9-22,68,50,32,39,36,29,89,61,32,30.22,30.15,30.08,10,10,10,14,5,20,0.00,0,,113
2011-9-23,90,62,34,41,37,32,89,52,14,30.11,29.99,29.88,10,10,10,12,4,14,0.00,0,,274
2011-9-24,86,65,44,46,42,39,71,46,20,29.93,29.87,29.83,10,10,5,10,4,15,0.00,0,,89
2011-9-25,81,62,42,48,43,39,89,59,28,29.87,29.83,29.77,10,10,10,14,7,20,0.00,0,,93
2011-9-26,80,62,43,45,42,39,89,56,23,29.97,29.89,29.83,10,10,10,6,7,7,0.00,0,,102
2011-9-27,89,66,42,47,39,35,89,53,16,30.03,29.95,29.88,10,10,10,9,4,12,0.00,0,,282
2011-9-28,93,69,45,43,40,36,76,46,15,30.07,29.90,29.83,10,10,10,22,10,28,0.00,0,,311
2011-9-29,71,53,35,36,30,24,76,47,18,30.35,30.29,30.09,10,10,4,29,11,38,0.00,1,,331
2011-9-30,81,56,30,36,32,26,85,51,16,30.33,30.15,29.99,10,10,10,22,8,29,0.00,0,,135